createdAt,value
2018-03-03T00:01:45.288Z,98.10
2018-03-03T00:04:13.494Z,106.07
2018-03-03T00:06:41.646Z,103.20
2018-03-03T00:09:09.786Z,113.10
2018-03-03T00:11:37.961Z,101.65
2018-03-03T00:14:06.108Z,93.60
2018-03-03T00:16:34.262Z,103.38
2018-03-03T00:19:02.418Z,100.18
2018-03-03T00:21:31.326Z,106.18
2018-03-03T00:23:59.472Z,108.30
2018-03-03T00:26:27.594Z,91.32
2018-03-03T00:28:55.740Z,102.78
2018-03-03T00:31:23.997Z,111.25
2018-03-03T00:33:53.016Z,95.82
2018-03-03T00:36:21.169Z,98.50
2018-03-03T00:38:50.086Z,99.20
2018-03-03T00:41:18.208Z,100.28
2018-03-03T00:43:46.335Z,107.95
2018-03-03T00:46:14.469Z,98.70
2018-03-03T00:48:42.656Z,104.07
2018-03-03T00:51:10.796Z,107.10
2018-03-03T00:53:38.985Z,99.50
2018-03-03T00:56:07.882Z,97.53
2018-03-03T00:58:36.777Z,99.40
2018-03-03T01:01:04.958Z,105.43
2018-03-03T01:03:33.113Z,114.93
2018-03-03T01:06:02.020Z,103.12
2018-03-03T01:08:30.155Z,104.15
2018-03-03T01:10:59.807Z,101.30
2018-03-03T01:13:28.169Z,107.35
2018-03-03T01:15:56.311Z,97.93
2018-03-03T01:18:24.435Z,106.30
2018-03-03T01:20:52.580Z,114.03
2018-03-03T01:23:21.948Z,108.40
2018-03-03T01:25:50.098Z,111.00
2018-03-03T01:28:18.224Z,113.00
2018-03-03T01:30:46.478Z,108.97
2018-03-03T01:33:14.598Z,111.57
2018-03-03T01:35:42.745Z,112.35
2018-03-03T01:38:10.937Z,115.78
2018-03-03T01:40:39.046Z,116.62
2018-03-03T01:43:07.190Z,116.75
2018-03-03T01:45:35.321Z,106.70
2018-03-03T01:48:04.232Z,114.68
2018-03-03T01:50:32.358Z,115.88
2018-03-03T01:53:00.503Z,109.80
2018-03-03T01:55:28.633Z,107.37
2018-03-03T01:57:56.784Z,112.18
2018-03-03T02:00:25.692Z,113.57
2018-03-03T02:02:53.897Z,113.70
2018-03-03T02:05:22.025Z,110.68
2018-03-03T02:07:50.933Z,107.68
2018-03-03T02:10:19.082Z,108.45
2018-03-03T02:12:47.998Z,111.00
2018-03-03T02:15:16.124Z,101.57
2018-03-03T02:17:44.274Z,102.97
2018-03-03T02:20:12.405Z,102.62
2018-03-03T02:22:40.545Z,103.50
2018-03-03T02:25:08.685Z,103.55
2018-03-03T02:27:36.817Z,112.22
2018-03-03T02:30:05.052Z,112.97
2018-03-03T02:32:33.182Z,117.37
2018-03-03T02:35:01.322Z,105.68
2018-03-03T02:37:30.245Z,110.90
2018-03-03T02:39:58.392Z,114.37
2018-03-03T02:42:26.524Z,121.15
2018-03-03T02:44:54.677Z,103.32
2018-03-03T02:47:22.808Z,108.28
2018-03-03T02:49:50.955Z,95.62
2018-03-03T02:52:19.082Z,102.45
2018-03-03T02:54:47.269Z,94.60
2018-03-03T02:57:15.396Z,97.12
2018-03-03T02:59:43.524Z,99.95
2018-03-03T03:02:11.674Z,110.93
2018-03-03T03:04:40.150Z,108.35
2018-03-03T03:07:08.278Z,104.00
2018-03-03T03:09:37.165Z,112.37
2018-03-03T03:12:06.073Z,112.18
2018-03-03T03:14:34.196Z,110.82
2018-03-03T03:17:02.345Z,112.57
2018-03-03T03:19:30.477Z,98.10
2018-03-03T03:21:59.453Z,102.78
2018-03-03T03:24:28.343Z,103.80
2018-03-03T03:26:57.264Z,102.20
2018-03-03T03:29:25.393Z,98.60
2018-03-03T03:31:53.530Z,104.22
2018-03-03T03:34:21.677Z,102.65
2018-03-03T03:36:49.801Z,102.28
2018-03-03T03:39:17.950Z,105.03
2018-03-03T03:41:46.145Z,111.50
2018-03-03T03:44:14.297Z,109.53
2018-03-03T03:46:42.428Z,111.22
2018-03-03T03:49:10.948Z,100.05
2018-03-03T03:51:39.094Z,110.82
2018-03-03T03:54:07.237Z,101.80
2018-03-03T03:56:36.175Z,116.65
2018-03-03T03:59:04.300Z,109.30
2018-03-03T04:01:33.201Z,122.90
2018-03-03T04:04:01.351Z,127.87
2018-03-03T04:06:30.237Z,118.32
2018-03-03T04:08:58.365Z,127.87
2018-03-03T04:11:26.513Z,127.28
2018-03-03T04:13:54.643Z,110.55
2018-03-03T04:16:22.834Z,114.62
2018-03-03T04:18:50.972Z,114.25
2018-03-03T04:21:19.121Z,116.25
2018-03-03T04:23:47.256Z,123.45
2018-03-03T04:26:16.178Z,118.03
2018-03-03T04:28:44.337Z,113.57
2018-03-03T04:31:12.493Z,122.32
2018-03-03T04:33:40.637Z,121.07
2018-03-03T04:36:08.813Z,119.78
2018-03-03T04:38:36.945Z,124.68
2018-03-03T04:41:05.115Z,123.82
2018-03-03T04:43:33.250Z,129.20
2018-03-03T04:46:02.170Z,123.80
2018-03-03T04:48:30.306Z,122.57
2018-03-03T04:50:59.298Z,127.18
2018-03-03T04:53:28.205Z,119.80
2018-03-03T04:55:56.340Z,118.37
2018-03-03T04:58:39.358Z,120.80
2018-03-03T05:01:13.036Z,127.78
2018-03-03T05:03:46.837Z,121.35
2018-03-03T05:06:15.550Z,112.22
2018-03-03T05:08:43.697Z,111.55
2018-03-03T05:11:12.280Z,111.60
2018-03-03T05:13:42.017Z,115.82
2018-03-03T05:16:15.826Z,126.70
2018-03-03T05:32:18.180Z,122.40
2018-03-03T05:48:28.986Z,122.25
2018-03-03T05:50:59.077Z,116.37
2018-03-03T06:07:17.780Z,118.93
2018-03-03T06:09:50.404Z,120.70
2018-03-03T06:12:18.553Z,114.45
2018-03-03T06:14:46.688Z,117.80
2018-03-03T06:17:14.830Z,120.15
2018-03-03T06:19:42.956Z,117.57
2018-03-03T06:22:11.877Z,118.03
2018-03-03T06:24:40.011Z,118.55
2018-03-03T06:27:08.625Z,125.35
2018-03-03T06:29:36.754Z,123.55
2018-03-03T06:32:04.933Z,109.70
2018-03-03T06:34:33.069Z,107.78
2018-03-03T06:37:01.219Z,114.97
2018-03-03T06:39:29.354Z,123.35
2018-03-03T06:41:58.291Z,120.50
2018-03-03T06:44:26.426Z,117.03
2018-03-03T06:46:54.586Z,120.37
2018-03-03T06:49:23.486Z,116.90
2018-03-03T06:51:51.637Z,118.68
2018-03-03T06:54:19.774Z,119.78
2018-03-03T06:56:47.931Z,118.70
2018-03-03T06:59:16.068Z,116.60
2018-03-03T07:01:44.969Z,135.52
2018-03-03T07:04:13.157Z,134.45
2018-03-03T07:06:41.319Z,148.07
2018-03-03T07:09:09.456Z,127.57
2018-03-03T07:11:37.598Z,131.75
2018-03-03T07:14:05.746Z,135.37
2018-03-03T07:16:33.905Z,132.00
2018-03-03T07:19:02.085Z,126.12
2018-03-03T07:21:30.229Z,124.60
2018-03-03T07:23:58.365Z,129.02
2018-03-03T07:26:26.510Z,137.43
2018-03-03T07:28:54.708Z,126.70
2018-03-03T07:31:22.848Z,132.63
2018-03-03T07:33:50.992Z,126.12
2018-03-03T07:36:19.893Z,134.45
2018-03-03T07:38:48.052Z,134.00
2018-03-03T07:41:16.953Z,130.93
2018-03-03T07:43:45.078Z,122.18
2018-03-03T07:46:13.225Z,130.60
2018-03-03T07:48:41.361Z,132.68
2018-03-03T07:51:09.513Z,127.40
2018-03-03T07:53:38.419Z,129.32
2018-03-03T07:56:07.326Z,138.43
2018-03-03T07:58:47.186Z,127.47
2018-03-03T08:01:15.322Z,131.50
2018-03-03T08:03:43.452Z,132.60
2018-03-03T08:06:11.635Z,129.45
2018-03-03T08:08:42.341Z,134.60
2018-03-03T08:11:10.521Z,138.80
2018-03-03T08:13:38.645Z,128.62
2018-03-03T08:16:06.801Z,124.00
2018-03-03T08:18:35.709Z,130.40
2018-03-03T08:21:04.002Z,134.15
2018-03-03T08:23:32.162Z,131.32
2018-03-03T08:26:00.361Z,130.68
2018-03-03T08:28:28.488Z,129.80
2018-03-03T08:30:57.478Z,127.60
2018-03-03T08:33:26.502Z,126.57
2018-03-03T08:35:54.872Z,138.70
2018-03-03T08:38:23.005Z,126.78
2018-03-03T08:40:51.229Z,135.82
2018-03-03T08:43:19.381Z,133.07
2018-03-03T08:45:47.518Z,129.95
2018-03-03T08:48:15.674Z,135.07
2018-03-03T08:50:43.805Z,130.35
2018-03-03T08:53:11.993Z,132.93
2018-03-03T08:55:40.121Z,138.60
2018-03-03T08:58:08.423Z,132.30
2018-03-03T09:00:36.548Z,127.07
2018-03-03T09:03:04.693Z,133.23
2018-03-03T09:05:32.822Z,130.65
2018-03-03T09:08:01.725Z,127.53
2018-03-03T09:10:29.862Z,129.15
2018-03-03T09:12:58.009Z,127.32
2018-03-03T09:15:26.153Z,120.68
2018-03-03T09:17:54.294Z,138.12
2018-03-03T09:20:23.699Z,138.02
2018-03-03T09:22:51.845Z,124.18
2018-03-03T09:25:19.986Z,124.53
2018-03-03T09:27:48.131Z,137.55
2018-03-03T09:30:16.261Z,137.27
2018-03-03T09:32:45.209Z,126.32
2018-03-03T09:35:13.363Z,129.55
2018-03-03T09:37:41.503Z,128.25
2018-03-03T09:40:10.422Z,130.68
2018-03-03T09:42:38.554Z,133.37
2018-03-03T09:45:06.701Z,120.75
2018-03-03T09:47:34.825Z,138.98
2018-03-03T09:50:03.089Z,141.15
2018-03-03T09:52:32.096Z,141.65
2018-03-03T09:55:00.270Z,137.95
2018-03-03T09:57:28.412Z,131.00
2018-03-03T09:59:56.614Z,116.35
2018-03-03T10:02:24.741Z,127.50
2018-03-03T10:04:52.889Z,120.30
2018-03-03T10:07:21.017Z,132.57
2018-03-03T10:09:49.165Z,128.73
2018-03-03T10:12:17.481Z,129.45
2018-03-03T10:14:45.632Z,123.80
2018-03-03T10:17:13.874Z,129.57
2018-03-03T10:22:16.533Z,132.00
2018-03-03T10:24:44.779Z,137.88
2018-03-03T10:27:13.692Z,134.43
2018-03-03T10:29:41.895Z,130.32
2018-03-03T10:32:11.845Z,119.93
2018-03-03T10:34:40.772Z,130.77
2018-03-03T10:37:08.901Z,114.88
2018-03-03T10:39:37.782Z,131.23
2018-03-03T10:42:06.694Z,124.75
2018-03-03T10:44:34.829Z,118.80
2018-03-03T10:47:03.119Z,112.55
2018-03-03T10:49:31.386Z,114.60
2018-03-03T10:52:00.305Z,111.00
2018-03-03T10:54:28.505Z,114.80
2018-03-03T10:56:56.702Z,101.70
2018-03-03T10:59:24.837Z,93.72
2018-03-03T11:01:52.970Z,93.75
2018-03-03T11:04:21.853Z,95.72
2018-03-03T11:06:49.989Z,104.40
2018-03-03T11:09:18.122Z,109.65
2018-03-03T11:11:46.278Z,105.40
2018-03-03T11:14:15.177Z,104.32
2018-03-03T11:16:44.072Z,106.12
2018-03-03T11:19:12.208Z,95.93
2018-03-03T11:21:41.106Z,93.70
2018-03-03T11:24:10.028Z,102.32
2018-03-03T11:26:38.157Z,100.07
2018-03-03T11:29:06.317Z,121.35
2018-03-03T11:31:34.470Z,99.07
2018-03-03T11:34:02.680Z,95.12
2018-03-03T11:36:30.821Z,105.53
2018-03-03T11:38:59.065Z,108.60
2018-03-03T11:41:27.201Z,110.15
2018-03-03T11:43:56.126Z,97.65
2018-03-03T11:46:24.286Z,107.25
2018-03-03T11:48:53.198Z,98.15
2018-03-03T11:51:21.321Z,96.18
2018-03-03T11:53:49.463Z,91.85
2018-03-03T11:56:17.593Z,91.15
2018-03-03T11:58:45.740Z,93.20
2018-03-03T12:01:14.630Z,85.27
2018-03-03T12:03:43.575Z,93.73
2018-03-03T12:06:11.701Z,106.45
2018-03-03T12:08:40.626Z,93.80
2018-03-03T12:11:08.743Z,97.03
2018-03-03T12:13:36.896Z,98.15
2018-03-03T12:16:05.042Z,95.43
2018-03-03T12:18:33.194Z,104.65
2018-03-03T12:21:01.321Z,103.80
2018-03-03T12:23:29.464Z,95.05
2018-03-03T12:25:57.590Z,98.90
2018-03-03T12:28:25.726Z,93.43
2018-03-03T12:30:53.831Z,90.40
2018-03-03T12:33:22.737Z,88.47
2018-03-03T12:35:50.862Z,95.25
2018-03-03T12:38:19.008Z,90.10
2018-03-03T12:40:47.129Z,85.18
2018-03-03T12:43:16.053Z,81.25
2018-03-03T12:45:44.185Z,91.53
2018-03-03T12:48:12.381Z,89.22
2018-03-03T12:50:40.500Z,98.00
2018-03-03T12:53:08.656Z,97.22
2018-03-03T12:55:36.766Z,97.90
2018-03-03T12:58:04.910Z,93.53
2018-03-03T13:00:33.037Z,95.97
2018-03-03T13:03:02.147Z,90.40
2018-03-03T13:05:31.018Z,94.80
2018-03-03T13:07:59.941Z,75.00
2018-03-03T13:10:28.071Z,88.87
2018-03-03T13:12:56.980Z,91.60
2018-03-03T13:15:25.107Z,81.03
2018-03-03T13:17:53.253Z,69.00
2018-03-03T13:20:21.379Z,71.25
2018-03-03T13:22:50.274Z,74.85
2018-03-03T13:25:18.404Z,66.45
2018-03-03T13:27:46.530Z,64.30
2018-03-03T13:30:14.682Z,50.08
2018-03-03T13:32:42.809Z,68.85
2018-03-03T13:35:10.945Z,62.08
2018-03-03T13:37:39.066Z,60.50
2018-03-03T13:40:07.222Z,59.92
2018-03-03T13:42:35.347Z,54.95
2018-03-03T13:45:04.257Z,58.03
2018-03-03T13:47:32.385Z,60.03
2018-03-03T13:50:00.657Z,75.47
2018-03-03T13:52:28.794Z,75.18
2018-03-03T13:54:57.057Z,86.43
2018-03-03T13:57:25.176Z,82.00
2018-03-03T13:59:53.326Z,86.95
2018-03-03T14:02:21.461Z,93.85
2018-03-03T14:04:49.593Z,90.97
2018-03-03T14:07:17.708Z,81.90
2018-03-03T14:09:45.853Z,91.60
2018-03-03T14:14:49.104Z,92.12
2018-03-03T14:17:17.225Z,82.18
2018-03-03T14:19:46.121Z,78.53
2018-03-03T14:22:15.009Z,77.25
2018-03-03T14:24:43.910Z,84.15
2018-03-03T14:27:12.066Z,76.10
2018-03-03T14:29:40.222Z,69.95
2018-03-03T14:32:08.349Z,73.93
2018-03-03T14:34:36.489Z,77.18
2018-03-03T14:37:04.613Z,75.32
2018-03-03T14:39:32.750Z,75.72
2018-03-03T14:42:00.910Z,85.57
2018-03-03T14:44:29.046Z,73.18
2018-03-03T14:46:57.177Z,70.32
2018-03-03T14:49:25.321Z,73.28
2018-03-03T14:51:54.198Z,67.78
2018-03-03T14:54:22.533Z,70.87
2018-03-03T14:56:51.433Z,67.00
2018-03-03T14:59:19.643Z,71.15
2018-03-03T15:01:48.558Z,75.37
2018-03-03T15:04:16.750Z,70.97
2018-03-03T15:06:49.882Z,69.90
2018-03-03T15:09:18.815Z,78.90
2018-03-03T15:11:46.957Z,70.37
2018-03-03T15:14:15.077Z,69.80
2018-03-03T15:16:43.236Z,61.45
2018-03-03T15:19:11.364Z,62.25
2018-03-03T15:21:40.274Z,64.18
2018-03-03T15:24:08.498Z,64.72
2018-03-03T15:26:38.520Z,62.65
2018-03-03T15:29:06.658Z,68.37
2018-03-03T15:31:34.793Z,57.95
2018-03-03T15:34:03.711Z,59.10
2018-03-03T15:36:31.855Z,59.33
2018-03-03T15:39:00.002Z,62.67
2018-03-03T15:41:28.124Z,56.67
2018-03-03T15:43:56.259Z,59.13
2018-03-03T15:46:25.163Z,60.97
2018-03-03T15:48:53.284Z,55.78
2018-03-03T15:51:21.409Z,57.78
2018-03-03T15:53:49.561Z,53.42
2018-03-03T15:56:18.453Z,52.67
2018-03-03T15:58:47.353Z,53.75
2018-03-03T16:01:15.477Z,47.97
2018-03-03T16:03:43.619Z,55.28
2018-03-03T16:06:11.733Z,57.90
2018-03-03T16:08:39.873Z,72.60
2018-03-03T16:11:07.988Z,73.30
2018-03-03T16:13:36.890Z,66.68
2018-03-03T16:16:05.777Z,69.97
2018-03-03T16:18:34.677Z,67.30
2018-03-03T16:21:03.157Z,67.57
2018-03-03T16:23:32.053Z,68.85
2018-03-03T16:26:00.182Z,67.00
2018-03-03T16:28:28.320Z,66.28
2018-03-03T16:30:56.440Z,73.00
2018-03-03T16:33:25.374Z,73.43
2018-03-03T16:35:53.501Z,67.55
2018-03-03T16:38:21.664Z,59.78
2018-03-03T16:40:49.802Z,68.97
2018-03-03T16:43:17.973Z,62.33
2018-03-03T16:45:46.156Z,80.80
2018-03-03T16:48:14.297Z,74.30
2018-03-03T16:50:42.474Z,65.82
2018-03-03T16:53:10.629Z,61.15
2018-03-03T16:55:38.769Z,62.35
2018-03-03T16:58:07.658Z,68.87
2018-03-03T17:00:36.566Z,71.32
2018-03-03T17:03:05.797Z,69.70
2018-03-03T17:05:34.161Z,61.35
2018-03-03T17:08:02.277Z,64.53
2018-03-03T17:10:30.502Z,63.30
2018-03-03T17:12:58.642Z,69.80
2018-03-03T17:15:27.565Z,64.87
2018-03-03T17:17:55.797Z,68.37
2018-03-03T17:20:25.569Z,64.28
2018-03-03T17:22:53.736Z,62.67
2018-03-03T17:25:22.668Z,67.07
2018-03-03T17:27:50.912Z,77.72
2018-03-03T17:30:20.143Z,88.70
2018-03-03T17:32:48.328Z,88.87
2018-03-03T17:35:17.233Z,94.72
2018-03-03T17:37:45.369Z,90.38
2018-03-03T17:40:13.518Z,75.70
2018-03-03T17:42:41.636Z,67.30
2018-03-03T17:45:09.801Z,95.75
2018-03-03T17:47:37.971Z,91.03
2018-03-03T17:50:06.939Z,84.72
2018-03-03T17:52:35.088Z,86.50
2018-03-03T17:55:03.222Z,79.07
2018-03-03T17:57:31.365Z,74.50
2018-03-03T17:59:59.490Z,78.37
2018-03-03T18:02:27.626Z,77.43
2018-03-03T18:04:56.561Z,71.78
2018-03-03T18:07:25.435Z,76.28
2018-03-03T18:09:53.557Z,82.57
2018-03-03T18:12:21.696Z,74.43
2018-03-03T18:14:49.821Z,76.00
2018-03-03T18:17:17.966Z,71.62
2018-03-03T18:19:46.094Z,79.50
2018-03-03T18:22:14.238Z,77.87
2018-03-03T18:24:42.378Z,80.68
2018-03-03T18:27:10.512Z,83.57
2018-03-03T18:29:38.645Z,79.53
2018-03-03T18:32:06.790Z,84.87
2018-03-03T18:34:34.930Z,94.60
2018-03-03T18:37:03.061Z,85.40
2018-03-03T18:39:31.562Z,85.18
2018-03-03T18:41:59.826Z,89.87
2018-03-03T18:44:28.046Z,90.28
2018-03-03T18:46:56.273Z,85.60
2018-03-03T18:49:24.405Z,90.50
2018-03-03T18:51:52.522Z,84.62
2018-03-03T18:54:20.661Z,99.37
2018-03-03T18:56:49.582Z,81.78
2018-03-03T18:59:17.726Z,82.07
2018-03-03T19:01:46.622Z,76.68
2018-03-03T19:04:15.517Z,72.78
2018-03-03T19:06:44.408Z,90.43
2018-03-03T19:09:13.328Z,101.90
2018-03-03T19:11:41.445Z,93.10
2018-03-03T19:14:09.609Z,95.03
2018-03-03T19:16:37.733Z,133.52
2018-03-03T19:19:05.883Z,120.82
2018-03-03T19:21:34.769Z,94.32
2018-03-03T19:24:03.673Z,100.47
2018-03-03T19:26:31.807Z,98.75
2018-03-03T19:28:59.946Z,102.05
2018-03-03T19:31:28.144Z,99.62
2018-03-03T19:33:56.279Z,98.62
2018-03-03T19:36:24.405Z,100.20
2018-03-03T19:38:53.317Z,96.12
2018-03-03T19:41:21.446Z,92.97
2018-03-03T19:43:49.597Z,101.60
2018-03-03T19:46:17.722Z,95.53
2018-03-03T19:48:46.624Z,99.82
2018-03-03T19:51:14.758Z,95.57
2018-03-03T19:53:42.901Z,90.15
2018-03-03T19:56:11.029Z,89.45
2018-03-03T19:58:39.941Z,94.18
2018-03-03T20:01:08.070Z,91.43
2018-03-03T20:03:36.216Z,98.03
2018-03-03T20:06:04.367Z,92.72
2018-03-03T20:08:32.514Z,99.35
2018-03-03T20:11:00.724Z,94.68
2018-03-03T20:13:28.925Z,91.40
2018-03-03T20:15:57.120Z,96.87
2018-03-03T20:18:25.246Z,92.62
2018-03-03T20:20:53.355Z,99.82
2018-03-03T20:23:21.533Z,92.60
2018-03-03T20:25:50.441Z,91.90
2018-03-03T20:28:18.607Z,96.10
2018-03-03T20:30:46.833Z,86.57
2018-03-03T20:33:14.989Z,87.47
2018-03-03T20:35:43.109Z,94.87
2018-03-03T20:38:12.108Z,89.37
2018-03-03T20:40:40.285Z,87.97
2018-03-03T20:43:08.431Z,91.75
2018-03-03T20:45:37.325Z,85.95
2018-03-03T20:48:06.241Z,91.30
2018-03-03T20:50:34.378Z,85.85
2018-03-03T20:53:03.393Z,86.75
2018-03-03T20:55:31.532Z,84.60
2018-03-03T20:57:59.673Z,93.15
2018-03-03T21:00:28.784Z,87.95
2018-03-03T21:02:56.914Z,87.18
2018-03-03T21:05:25.382Z,90.00
2018-03-03T21:07:53.917Z,82.93
2018-03-03T21:10:22.053Z,89.93
2018-03-03T21:12:51.209Z,80.45
2018-03-03T21:15:19.333Z,85.47
2018-03-03T21:17:47.470Z,87.32
2018-03-03T21:20:15.621Z,80.15
2018-03-03T21:22:44.514Z,82.28
2018-03-03T21:25:13.521Z,84.13
2018-03-03T21:27:41.653Z,79.00
2018-03-03T21:30:09.810Z,82.15
2018-03-03T21:32:37.941Z,83.80
2018-03-03T21:35:06.078Z,79.80
2018-03-03T21:37:34.969Z,81.53
2018-03-03T21:40:03.900Z,80.38
2018-03-03T21:42:32.358Z,79.07
2018-03-03T21:45:00.498Z,80.35
2018-03-03T21:47:28.637Z,74.53
2018-03-03T21:49:56.874Z,75.47
2018-03-03T21:52:25.045Z,78.03
2018-03-03T21:54:53.250Z,68.35
2018-03-03T21:57:21.365Z,70.97
2018-03-03T21:59:50.277Z,74.93
2018-03-03T22:02:18.414Z,69.55
2018-03-03T22:04:49.518Z,74.18
2018-03-03T22:07:17.659Z,73.10
2018-03-03T22:09:45.825Z,68.87
2018-03-03T22:12:14.036Z,73.10
2018-03-03T22:14:42.173Z,76.95
2018-03-03T22:17:10.391Z,70.72
2018-03-03T22:19:38.514Z,72.78
2018-03-03T22:22:06.661Z,75.30
2018-03-03T22:24:35.282Z,77.45
2018-03-03T22:27:03.533Z,72.10
2018-03-03T22:29:31.700Z,74.15
2018-03-03T22:32:00.676Z,76.43
2018-03-03T22:34:28.908Z,76.45
2018-03-03T22:36:57.036Z,73.68
2018-03-03T22:39:25.978Z,81.47
2018-03-03T22:41:54.222Z,74.32
2018-03-03T22:44:22.518Z,75.60
2018-03-03T22:46:50.653Z,73.60
2018-03-03T22:49:19.557Z,73.72
2018-03-03T22:51:47.748Z,73.97
2018-03-03T22:54:15.909Z,77.60
2018-03-03T22:56:44.050Z,74.15
2018-03-03T22:59:12.193Z,72.70
2018-03-03T23:01:40.437Z,72.10
2018-03-03T23:04:08.591Z,73.50
2018-03-03T23:06:36.729Z,70.37
2018-03-03T23:09:05.653Z,70.50
2018-03-03T23:11:33.813Z,74.75
2018-03-03T23:14:02.725Z,77.80
2018-03-03T23:16:30.950Z,77.80
2018-03-03T23:18:59.213Z,76.50
2018-03-03T23:21:28.295Z,80.87
2018-03-03T23:23:56.548Z,76.43
2018-03-03T23:26:24.721Z,71.18
2018-03-03T23:28:52.913Z,74.55
2018-03-03T23:31:21.137Z,72.00
2018-03-03T23:33:50.039Z,81.95
2018-03-03T23:36:18.893Z,76.00
2018-03-03T23:38:47.788Z,72.32
2018-03-03T23:41:16.777Z,78.78
2018-03-03T23:43:45.673Z,75.50
2018-03-03T23:46:14.630Z,72.00
2018-03-03T23:48:42.758Z,70.22
2018-03-03T23:51:10.888Z,68.97
2018-03-03T23:53:39.183Z,72.28
2018-03-03T23:56:07.309Z,78.50
2018-03-03T23:58:37.099Z,75.30
